sensor_id;sensor_type;location;lat;lon;timestamp;temperature;humidity
26342;DHT22;14054;50.108;8.640;2023-07-29T00:00:43;18.80;99.90
26342;DHT22;14054;50.108;8.640;2023-07-29T00:03:09;18.70;99.90
26342;DHT22;14054;50.108;8.640;2023-07-29T00:05:34;18.80;99.90
26342;DHT22;14054;50.108;8.640;2023-07-29T00:08:00;18.80;99.90
26342;DHT22;14054;50.108;8.640;2023-07-29T00:10:26;18.70;99.90
26342;DHT22;14054;50.108;8.640;2023-07-29T00:12:51;18.80;99.90
26342;DHT22;14054;50.108;8.640;2023-07-29T00:15:17;18.70;99.90
26342;DHT22;14054;50.108;8.640;2023-07-29T00:17:42;18.70;99.90
26342;DHT22;14054;50.108;8.640;2023-07-29T00:20:08;18.80;99.90
26342;DHT22;14054;50.108;8.640;2023-07-29T00:22:33;18.80;99.90
26342;DHT22;14054;50.108;8.640;2023-07-29T00:24:59;18.80;99.90
26342;DHT22;14054;50.108;8.640;2023-07-29T00:27:25;18.80;99.90
26342;DHT22;14054;50.108;8.640;2023-07-29T00:29:51;18.80;99.90
26342;DHT22;14054;50.108;8.640;2023-07-29T00:32:16;18.80;99.90
26342;DHT22;14054;50.108;8.640;2023-07-29T00:34:42;18.80;99.90
26342;DHT22;14054;50.108;8.640;2023-07-29T00:37:07;18.80;99.90
26342;DHT22;14054;50.108;8.640;2023-07-29T00:39:33;18.80;99.90
26342;DHT22;14054;50.108;8.640;2023-07-29T00:41:59;18.80;99.90
26342;DHT22;14054;50.108;8.640;2023-07-29T00:44:24;18.80;99.90
26342;DHT22;14054;50.108;8.640;2023-07-29T00:46:51;18.80;99.90
26342;DHT22;14054;50.108;8.640;2023-07-29T00:49:17;18.80;99.90
26342;DHT22;14054;50.108;8.640;2023-07-29T00:51:43;18.80;99.90
26342;DHT22;14054;50.108;8.640;2023-07-29T00:54:09;18.80;99.90
26342;DHT22;14054;50.108;8.640;2023-07-29T00:56:35;18.80;99.90
26342;DHT22;14054;50.108;8.640;2023-07-29T00:59:01;18.80;99.90
26342;DHT22;14054;50.108;8.640;2023-07-29T01:01:28;18.80;99.90
26342;DHT22;14054;50.108;8.640;2023-07-29T01:03:54;18.80;99.90
26342;DHT22;14054;50.108;8.640;2023-07-29T01:09:17;18.80;99.90
26342;DHT22;14054;50.108;8.640;2023-07-29T01:11:56;18.70;99.90
26342;DHT22;14054;50.108;8.640;2023-07-29T01:14:39;18.80;99.90
26342;DHT22;14054;50.108;8.640;2023-07-29T01:17:09;18.80;99.90
26342;DHT22;14054;50.108;8.640;2023-07-29T01:22:24;18.80;99.90
26342;DHT22;14054;50.108;8.640;2023-07-29T01:24:49;18.70;99.90
26342;DHT22;14054;50.108;8.640;2023-07-29T01:27:15;18.70;99.90
26342;DHT22;14054;50.108;8.640;2023-07-29T01:29:40;18.80;99.90
26342;DHT22;14054;50.108;8.640;2023-07-29T01:32:19;18.80;99.90
26342;DHT22;14054;50.108;8.640;2023-07-29T01:34:59;18.80;99.90
26342;DHT22;14054;50.108;8.640;2023-07-29T01:37:27;18.70;99.90
26342;DHT22;14054;50.108;8.640;2023-07-29T01:39:57;18.70;99.90
26342;DHT22;14054;50.108;8.640;2023-07-29T01:42:24;18.70;99.90
26342;DHT22;14054;50.108;8.640;2023-07-29T01:44:50;18.70;99.90
26342;DHT22;14054;50.108;8.640;2023-07-29T01:47:16;18.70;99.90
26342;DHT22;14054;50.108;8.640;2023-07-29T01:49:41;18.70;99.90
26342;DHT22;14054;50.108;8.640;2023-07-29T01:52:07;18.70;99.90
26342;DHT22;14054;50.108;8.640;2023-07-29T01:54:32;18.70;99.90
26342;DHT22;14054;50.108;8.640;2023-07-29T01:56:58;18.70;99.90
26342;DHT22;14054;50.108;8.640;2023-07-29T01:59:23;18.70;99.90
26342;DHT22;14054;50.108;8.640;2023-07-29T02:01:49;18.70;99.90
26342;DHT22;14054;50.108;8.640;2023-07-29T02:04:14;18.70;99.90
26342;DHT22;14054;50.108;8.640;2023-07-29T02:06:40;18.80;99.90
26342;DHT22;14054;50.108;8.640;2023-07-29T02:09:05;18.80;99.90
26342;DHT22;14054;50.108;8.640;2023-07-29T02:11:31;18.80;99.90
26342;DHT22;14054;50.108;8.640;2023-07-29T02:13:57;18.80;99.90
26342;DHT22;14054;50.108;8.640;2023-07-29T02:16:23;18.80;99.90
26342;DHT22;14054;50.108;8.640;2023-07-29T02:18:49;18.80;99.90
26342;DHT22;14054;50.108;8.640;2023-07-29T02:21:15;18.80;99.90
26342;DHT22;14054;50.108;8.640;2023-07-29T02:23:41;18.90;99.90
26342;DHT22;14054;50.108;8.640;2023-07-29T02:26:06;18.90;99.90
26342;DHT22;14054;50.108;8.640;2023-07-29T02:28:32;18.80;99.90
26342;DHT22;14054;50.108;8.640;2023-07-29T02:31:30;18.80;99.90
26342;DHT22;14054;50.108;8.640;2023-07-29T02:33:55;18.80;99.90
26342;DHT22;14054;50.108;8.640;2023-07-29T02:36:21;18.80;99.90
26342;DHT22;14054;50.108;8.640;2023-07-29T02:38:47;18.80;99.90
26342;DHT22;14054;50.108;8.640;2023-07-29T02:41:12;18.80;99.90
26342;DHT22;14054;50.108;8.640;2023-07-29T02:43:38;18.90;99.90
26342;DHT22;14054;50.108;8.640;2023-07-29T02:46:04;18.80;99.90
26342;DHT22;14054;50.108;8.640;2023-07-29T02:48:30;18.90;99.90
26342;DHT22;14054;50.108;8.640;2023-07-29T02:50:56;18.90;99.90
26342;DHT22;14054;50.108;8.640;2023-07-29T02:53:24;18.90;99.90
26342;DHT22;14054;50.108;8.640;2023-07-29T02:55:50;18.80;99.90
26342;DHT22;14054;50.108;8.640;2023-07-29T02:58:16;18.80;99.90
26342;DHT22;14054;50.108;8.640;2023-07-29T03:00:41;18.80;99.90
26342;DHT22;14054;50.108;8.640;2023-07-29T03:03:08;18.80;99.90
26342;DHT22;14054;50.108;8.640;2023-07-29T03:05:33;18.80;99.90
26342;DHT22;14054;50.108;8.640;2023-07-29T03:07:59;18.80;99.90
26342;DHT22;14054;50.108;8.640;2023-07-29T03:10:24;18.80;99.90
26342;DHT22;14054;50.108;8.640;2023-07-29T03:12:50;18.80;99.90
26342;DHT22;14054;50.108;8.640;2023-07-29T03:15:16;18.70;99.90
26342;DHT22;14054;50.108;8.640;2023-07-29T03:17:41;18.70;99.90
26342;DHT22;14054;50.108;8.640;2023-07-29T03:20:07;18.70;99.90
26342;DHT22;14054;50.108;8.640;2023-07-29T03:22:33;18.70;99.90
26342;DHT22;14054;50.108;8.640;2023-07-29T03:24:58;18.60;99.90
26342;DHT22;14054;50.108;8.640;2023-07-29T03:27:24;18.60;99.90
26342;DHT22;14054;50.108;8.640;2023-07-29T03:29:49;18.60;99.90
26342;DHT22;14054;50.108;8.640;2023-07-29T03:32:15;18.50;99.90
26342;DHT22;14054;50.108;8.640;2023-07-29T03:34:40;18.50;99.90
26342;DHT22;14054;50.108;8.640;2023-07-29T03:37:06;18.50;99.90
26342;DHT22;14054;50.108;8.640;2023-07-29T03:39:32;18.50;99.90
26342;DHT22;14054;50.108;8.640;2023-07-29T03:41:57;18.50;99.90
26342;DHT22;14054;50.108;8.640;2023-07-29T03:44:23;18.50;99.90
26342;DHT22;14054;50.108;8.640;2023-07-29T03:46:49;18.50;99.90
26342;DHT22;14054;50.108;8.640;2023-07-29T03:49:14;18.50;99.90
26342;DHT22;14054;50.108;8.640;2023-07-29T03:51:39;18.50;99.90
26342;DHT22;14054;50.108;8.640;2023-07-29T03:54:05;18.50;99.90
26342;DHT22;14054;50.108;8.640;2023-07-29T03:56:31;18.50;99.90
26342;DHT22;14054;50.108;8.640;2023-07-29T03:59:04;18.50;99.90
26342;DHT22;14054;50.108;8.640;2023-07-29T04:01:30;18.60;99.90
26342;DHT22;14054;50.108;8.640;2023-07-29T04:03:55;18.60;99.90
26342;DHT22;14054;50.108;8.640;2023-07-29T04:06:21;18.50;99.90
26342;DHT22;14054;50.108;8.640;2023-07-29T04:08:48;18.50;99.90
26342;DHT22;14054;50.108;8.640;2023-07-29T04:11:13;18.60;99.90
26342;DHT22;14054;50.108;8.640;2023-07-29T04:13:39;18.60;99.90
26342;DHT22;14054;50.108;8.640;2023-07-29T04:16:04;18.50;99.90
26342;DHT22;14054;50.108;8.640;2023-07-29T04:18:30;18.50;99.90
26342;DHT22;14054;50.108;8.640;2023-07-29T04:20:55;18.60;99.90
26342;DHT22;14054;50.108;8.640;2023-07-29T04:23:21;18.60;99.90
26342;DHT22;14054;50.108;8.640;2023-07-29T04:25:46;18.60;99.90
26342;DHT22;14054;50.108;8.640;2023-07-29T04:28:12;18.60;99.90
26342;DHT22;14054;50.108;8.640;2023-07-29T04:30:37;18.60;99.90
26342;DHT22;14054;50.108;8.640;2023-07-29T04:33:03;18.60;99.90
26342;DHT22;14054;50.108;8.640;2023-07-29T04:35:28;18.60;99.90
26342;DHT22;14054;50.108;8.640;2023-07-29T04:37:54;18.60;99.90
26342;DHT22;14054;50.108;8.640;2023-07-29T04:40:19;18.60;99.90
26342;DHT22;14054;50.108;8.640;2023-07-29T04:42:45;18.60;99.90
26342;DHT22;14054;50.108;8.640;2023-07-29T04:45:11;18.60;99.90
26342;DHT22;14054;50.108;8.640;2023-07-29T04:47:36;18.60;99.90
26342;DHT22;14054;50.108;8.640;2023-07-29T04:50:02;18.60;99.90
26342;DHT22;14054;50.108;8.640;2023-07-29T04:52:27;18.60;99.90
26342;DHT22;14054;50.108;8.640;2023-07-29T04:54:53;18.60;99.90
26342;DHT22;14054;50.108;8.640;2023-07-29T04:57:18;18.60;99.90
26342;DHT22;14054;50.108;8.640;2023-07-29T04:59:44;18.60;99.90
26342;DHT22;14054;50.108;8.640;2023-07-29T05:02:09;18.60;99.90
26342;DHT22;14054;50.108;8.640;2023-07-29T05:04:34;18.60;99.90
26342;DHT22;14054;50.108;8.640;2023-07-29T05:07:00;18.60;99.90
26342;DHT22;14054;50.108;8.640;2023-07-29T05:09:25;18.60;99.90
26342;DHT22;14054;50.108;8.640;2023-07-29T05:11:51;18.70;99.90
26342;DHT22;14054;50.108;8.640;2023-07-29T05:14:17;18.70;99.90
26342;DHT22;14054;50.108;8.640;2023-07-29T05:16:43;18.80;99.90
26342;DHT22;14054;50.108;8.640;2023-07-29T05:19:09;18.80;99.90
26342;DHT22;14054;50.108;8.640;2023-07-29T05:21:35;18.80;99.90
26342;DHT22;14054;50.108;8.640;2023-07-29T05:24:00;18.80;99.90
26342;DHT22;14054;50.108;8.640;2023-07-29T05:26:26;18.80;99.90
26342;DHT22;14054;50.108;8.640;2023-07-29T05:28:51;18.80;99.90
26342;DHT22;14054;50.108;8.640;2023-07-29T05:31:17;18.90;99.90
26342;DHT22;14054;50.108;8.640;2023-07-29T05:33:43;18.90;99.90
26342;DHT22;14054;50.108;8.640;2023-07-29T05:36:08;18.90;99.90
26342;DHT22;14054;50.108;8.640;2023-07-29T05:38:34;18.90;99.90
26342;DHT22;14054;50.108;8.640;2023-07-29T05:40:59;18.90;99.90
26342;DHT22;14054;50.108;8.640;2023-07-29T05:43:26;18.80;99.90
26342;DHT22;14054;50.108;8.640;2023-07-29T05:45:52;18.80;99.90
26342;DHT22;14054;50.108;8.640;2023-07-29T05:48:21;18.90;99.90
26342;DHT22;14054;50.108;8.640;2023-07-29T05:50:47;18.80;99.90
26342;DHT22;14054;50.108;8.640;2023-07-29T05:53:13;18.80;99.90
26342;DHT22;14054;50.108;8.640;2023-07-29T05:55:39;18.80;99.90
26342;DHT22;14054;50.108;8.640;2023-07-29T05:58:04;18.80;99.90
26342;DHT22;14054;50.108;8.640;2023-07-29T06:00:30;18.90;99.90
26342;DHT22;14054;50.108;8.640;2023-07-29T06:02:55;18.90;99.90
26342;DHT22;14054;50.108;8.640;2023-07-29T06:05:21;18.90;99.90
26342;DHT22;14054;50.108;8.640;2023-07-29T06:07:46;18.90;99.90
26342;DHT22;14054;50.108;8.640;2023-07-29T06:10:14;18.90;99.90
26342;DHT22;14054;50.108;8.640;2023-07-29T06:12:43;18.90;99.90
26342;DHT22;14054;50.108;8.640;2023-07-29T06:15:09;19.00;99.90
26342;DHT22;14054;50.108;8.640;2023-07-29T06:17:34;19.00;99.90
26342;DHT22;14054;50.108;8.640;2023-07-29T06:20:00;19.00;99.90
26342;DHT22;14054;50.108;8.640;2023-07-29T06:22:25;18.90;99.90
26342;DHT22;14054;50.108;8.640;2023-07-29T06:24:51;19.00;99.90
26342;DHT22;14054;50.108;8.640;2023-07-29T06:27:16;18.90;99.90
26342;DHT22;14054;50.108;8.640;2023-07-29T06:29:42;18.90;99.90
26342;DHT22;14054;50.108;8.640;2023-07-29T06:32:07;18.90;99.90
26342;DHT22;14054;50.108;8.640;2023-07-29T06:34:33;18.80;99.90
26342;DHT22;14054;50.108;8.640;2023-07-29T06:36:58;18.70;99.90
26342;DHT22;14054;50.108;8.640;2023-07-29T06:39:24;18.70;99.90
26342;DHT22;14054;50.108;8.640;2023-07-29T06:41:49;18.70;99.90
26342;DHT22;14054;50.108;8.640;2023-07-29T06:44:14;18.70;99.90
26342;DHT22;14054;50.108;8.640;2023-07-29T06:46:40;18.70;99.90
26342;DHT22;14054;50.108;8.640;2023-07-29T06:49:06;18.70;99.90
26342;DHT22;14054;50.108;8.640;2023-07-29T06:51:31;18.70;99.90
26342;DHT22;14054;50.108;8.640;2023-07-29T06:54:00;18.70;99.90
26342;DHT22;14054;50.108;8.640;2023-07-29T06:56:25;18.70;99.90
26342;DHT22;14054;50.108;8.640;2023-07-29T06:58:51;18.80;99.90
26342;DHT22;14054;50.108;8.640;2023-07-29T07:01:16;18.80;99.90
26342;DHT22;14054;50.108;8.640;2023-07-29T07:03:42;18.80;99.90
26342;DHT22;14054;50.108;8.640;2023-07-29T07:06:07;18.70;99.90
26342;DHT22;14054;50.108;8.640;2023-07-29T07:08:33;18.80;99.90
26342;DHT22;14054;50.108;8.640;2023-07-29T07:10:58;18.70;99.90
26342;DHT22;14054;50.108;8.640;2023-07-29T07:13:24;18.70;99.90
26342;DHT22;14054;50.108;8.640;2023-07-29T07:15:50;18.70;99.90
26342;DHT22;14054;50.108;8.640;2023-07-29T07:18:15;18.70;99.90
26342;DHT22;14054;50.108;8.640;2023-07-29T07:20:41;18.70;99.90
26342;DHT22;14054;50.108;8.640;2023-07-29T07:23:06;18.70;99.90
26342;DHT22;14054;50.108;8.640;2023-07-29T07:25:36;18.80;99.90
26342;DHT22;14054;50.108;8.640;2023-07-29T07:28:01;18.80;99.90
26342;DHT22;14054;50.108;8.640;2023-07-29T07:30:27;18.80;99.90
26342;DHT22;14054;50.108;8.640;2023-07-29T07:32:52;18.80;99.90
26342;DHT22;14054;50.108;8.640;2023-07-29T07:35:18;18.90;99.90
26342;DHT22;14054;50.108;8.640;2023-07-29T07:37:44;18.90;99.90
26342;DHT22;14054;50.108;8.640;2023-07-29T07:40:10;18.90;99.90
26342;DHT22;14054;50.108;8.640;2023-07-29T07:42:35;18.90;99.90
26342;DHT22;14054;50.108;8.640;2023-07-29T07:45:01;19.00;99.90
26342;DHT22;14054;50.108;8.640;2023-07-29T07:47:26;19.00;99.90
26342;DHT22;14054;50.108;8.640;2023-07-29T07:49:52;19.00;99.90
26342;DHT22;14054;50.108;8.640;2023-07-29T07:52:17;19.00;99.90
26342;DHT22;14054;50.108;8.640;2023-07-29T07:54:43;19.10;99.90
26342;DHT22;14054;50.108;8.640;2023-07-29T07:57:09;19.10;99.90
26342;DHT22;14054;50.108;8.640;2023-07-29T07:59:34;19.10;99.90
26342;DHT22;14054;50.108;8.640;2023-07-29T08:02:00;19.10;99.90
26342;DHT22;14054;50.108;8.640;2023-07-29T08:04:25;19.10;99.90
26342;DHT22;14054;50.108;8.640;2023-07-29T08:06:51;19.10;99.90
26342;DHT22;14054;50.108;8.640;2023-07-29T08:09:16;19.10;99.90
26342;DHT22;14054;50.108;8.640;2023-07-29T08:11:42;19.10;99.90
26342;DHT22;14054;50.108;8.640;2023-07-29T08:14:07;19.10;99.90
26342;DHT22;14054;50.108;8.640;2023-07-29T08:16:32;19.20;99.90
26342;DHT22;14054;50.108;8.640;2023-07-29T08:18:58;19.30;99.90
26342;DHT22;14054;50.108;8.640;2023-07-29T08:21:23;19.30;99.90
26342;DHT22;14054;50.108;8.640;2023-07-29T08:23:49;19.30;99.90
26342;DHT22;14054;50.108;8.640;2023-07-29T08:26:14;19.30;99.90
26342;DHT22;14054;50.108;8.640;2023-07-29T08:28:40;19.30;99.90
26342;DHT22;14054;50.108;8.640;2023-07-29T08:31:06;19.30;99.90
26342;DHT22;14054;50.108;8.640;2023-07-29T08:33:32;19.50;99.90
26342;DHT22;14054;50.108;8.640;2023-07-29T08:35:59;19.60;99.90
26342;DHT22;14054;50.108;8.640;2023-07-29T08:38:24;19.90;99.90
26342;DHT22;14054;50.108;8.640;2023-07-29T08:41:09;20.50;99.90
26342;DHT22;14054;50.108;8.640;2023-07-29T08:43:39;20.90;99.90
26342;DHT22;14054;50.108;8.640;2023-07-29T08:46:06;20.80;99.90
26342;DHT22;14054;50.108;8.640;2023-07-29T08:48:39;21.20;99.90
26342;DHT22;14054;50.108;8.640;2023-07-29T08:51:05;21.50;99.90
26342;DHT22;14054;50.108;8.640;2023-07-29T08:53:31;21.90;99.90
26342;DHT22;14054;50.108;8.640;2023-07-29T08:55:57;21.80;99.90
26342;DHT22;14054;50.108;8.640;2023-07-29T08:58:24;21.60;99.90
26342;DHT22;14054;50.108;8.640;2023-07-29T09:00:50;21.70;99.90
26342;DHT22;14054;50.108;8.640;2023-07-29T09:03:16;21.80;99.90
26342;DHT22;14054;50.108;8.640;2023-07-29T09:05:41;21.80;99.90
26342;DHT22;14054;50.108;8.640;2023-07-29T09:08:07;21.80;99.90
26342;DHT22;14054;50.108;8.640;2023-07-29T09:10:37;22.10;99.90
26342;DHT22;14054;50.108;8.640;2023-07-29T09:13:03;22.40;99.90
26342;DHT22;14054;50.108;8.640;2023-07-29T09:15:30;22.80;99.90
26342;DHT22;14054;50.108;8.640;2023-07-29T09:17:57;22.60;99.90
26342;DHT22;14054;50.108;8.640;2023-07-29T09:20:27;22.50;99.90
26342;DHT22;14054;50.108;8.640;2023-07-29T09:22:58;22.40;99.90
26342;DHT22;14054;50.108;8.640;2023-07-29T09:25:26;22.20;99.90
26342;DHT22;14054;50.108;8.640;2023-07-29T09:27:52;22.20;99.90
26342;DHT22;14054;50.108;8.640;2023-07-29T09:30:18;22.70;99.90
26342;DHT22;14054;50.108;8.640;2023-07-29T09:32:44;22.90;99.90
26342;DHT22;14054;50.108;8.640;2023-07-29T09:35:11;22.90;99.90
26342;DHT22;14054;50.108;8.640;2023-07-29T09:37:38;22.60;99.90
26342;DHT22;14054;50.108;8.640;2023-07-29T09:40:04;22.50;99.90
26342;DHT22;14054;50.108;8.640;2023-07-29T09:42:30;22.60;99.90
26342;DHT22;14054;50.108;8.640;2023-07-29T09:44:55;23.00;99.90
26342;DHT22;14054;50.108;8.640;2023-07-29T09:47:25;23.00;99.90
26342;DHT22;14054;50.108;8.640;2023-07-29T09:49:52;23.10;99.90
26342;DHT22;14054;50.108;8.640;2023-07-29T09:52:22;23.30;99.90
26342;DHT22;14054;50.108;8.640;2023-07-29T09:54:48;23.60;99.90
26342;DHT22;14054;50.108;8.640;2023-07-29T09:57:15;23.60;99.90
26342;DHT22;14054;50.108;8.640;2023-07-29T09:59:42;23.60;99.90
26342;DHT22;14054;50.108;8.640;2023-07-29T10:02:14;23.50;99.90
26342;DHT22;14054;50.108;8.640;2023-07-29T10:04:42;23.30;99.90
26342;DHT22;14054;50.108;8.640;2023-07-29T10:07:11;23.30;99.90
26342;DHT22;14054;50.108;8.640;2023-07-29T10:09:38;23.60;99.90
26342;DHT22;14054;50.108;8.640;2023-07-29T10:12:06;23.70;99.90
26342;DHT22;14054;50.108;8.640;2023-07-29T10:14:32;23.80;99.90
26342;DHT22;14054;50.108;8.640;2023-07-29T10:16:57;24.20;99.90
26342;DHT22;14054;50.108;8.640;2023-07-29T10:19:25;24.20;99.90
26342;DHT22;14054;50.108;8.640;2023-07-29T10:21:52;24.20;99.90
26342;DHT22;14054;50.108;8.640;2023-07-29T10:24:25;24.10;99.90
26342;DHT22;14054;50.108;8.640;2023-07-29T10:26:58;24.20;99.90
26342;DHT22;14054;50.108;8.640;2023-07-29T10:29:24;24.20;99.90
26342;DHT22;14054;50.108;8.640;2023-07-29T10:31:53;24.20;99.90
26342;DHT22;14054;50.108;8.640;2023-07-29T10:34:20;24.30;99.90
26342;DHT22;14054;50.108;8.640;2023-07-29T10:36:48;24.70;99.90
26342;DHT22;14054;50.108;8.640;2023-07-29T10:39:14;25.10;99.90
26342;DHT22;14054;50.108;8.640;2023-07-29T10:41:58;25.40;99.90
26342;DHT22;14054;50.108;8.640;2023-07-29T10:47:18;24.90;99.90
26342;DHT22;14054;50.108;8.640;2023-07-29T10:49:44;25.00;99.90
26342;DHT22;14054;50.108;8.640;2023-07-29T10:52:15;25.00;99.90
26342;DHT22;14054;50.108;8.640;2023-07-29T10:54:46;25.40;99.90
26342;DHT22;14054;50.108;8.640;2023-07-29T10:57:16;25.80;99.90
26342;DHT22;14054;50.108;8.640;2023-07-29T10:59:55;25.50;99.90
26342;DHT22;14054;50.108;8.640;2023-07-29T11:02:31;25.80;99.90
26342;DHT22;14054;50.108;8.640;2023-07-29T11:04:57;25.80;99.90
26342;DHT22;14054;50.108;8.640;2023-07-29T11:07:24;25.40;99.90
26342;DHT22;14054;50.108;8.640;2023-07-29T11:09:53;25.10;99.90
26342;DHT22;14054;50.108;8.640;2023-07-29T11:18:00;24.10;99.90
26342;DHT22;14054;50.108;8.640;2023-07-29T11:20:28;23.90;99.90
26342;DHT22;14054;50.108;8.640;2023-07-29T11:22:55;23.70;99.90
26342;DHT22;14054;50.108;8.640;2023-07-29T11:25:22;23.50;99.90
26342;DHT22;14054;50.108;8.640;2023-07-29T11:27:49;23.20;99.90
26342;DHT22;14054;50.108;8.640;2023-07-29T11:30:16;23.10;99.90
26342;DHT22;14054;50.108;8.640;2023-07-29T11:32:43;23.60;99.90
26342;DHT22;14054;50.108;8.640;2023-07-29T11:35:10;24.60;99.90
26342;DHT22;14054;50.108;8.640;2023-07-29T11:37:37;25.40;99.90
26342;DHT22;14054;50.108;8.640;2023-07-29T11:40:03;26.20;99.90
26342;DHT22;14054;50.108;8.640;2023-07-29T11:42:34;26.50;99.90
26342;DHT22;14054;50.108;8.640;2023-07-29T11:45:00;26.90;99.90
26342;DHT22;14054;50.108;8.640;2023-07-29T11:47:26;27.40;99.90
26342;DHT22;14054;50.108;8.640;2023-07-29T11:49:52;27.50;99.90
26342;DHT22;14054;50.108;8.640;2023-07-29T11:52:18;27.80;99.90
26342;DHT22;14054;50.108;8.640;2023-07-29T11:54:47;27.90;99.90
26342;DHT22;14054;50.108;8.640;2023-07-29T11:57:13;28.50;99.90
26342;DHT22;14054;50.108;8.640;2023-07-29T11:59:40;28.50;99.90
26342;DHT22;14054;50.108;8.640;2023-07-29T12:02:16;29.10;99.90
26342;DHT22;14054;50.108;8.640;2023-07-29T12:04:43;29.20;99.90
26342;DHT22;14054;50.108;8.640;2023-07-29T12:07:10;28.80;99.90
26342;DHT22;14054;50.108;8.640;2023-07-29T12:09:36;28.00;99.90
26342;DHT22;14054;50.108;8.640;2023-07-29T12:12:03;28.60;99.90
26342;DHT22;14054;50.108;8.640;2023-07-29T12:14:29;29.00;99.90
26342;DHT22;14054;50.108;8.640;2023-07-29T12:16:55;28.80;99.90
26342;DHT22;14054;50.108;8.640;2023-07-29T12:19:20;28.20;99.90
26342;DHT22;14054;50.108;8.640;2023-07-29T12:21:48;28.60;99.90
26342;DHT22;14054;50.108;8.640;2023-07-29T12:24:14;29.20;99.90
26342;DHT22;14054;50.108;8.640;2023-07-29T12:26:42;29.80;99.90
26342;DHT22;14054;50.108;8.640;2023-07-29T12:29:16;30.30;99.90
26342;DHT22;14054;50.108;8.640;2023-07-29T12:31:41;30.70;99.90
26342;DHT22;14054;50.108;8.640;2023-07-29T12:34:07;30.70;99.90
26342;DHT22;14054;50.108;8.640;2023-07-29T12:36:47;31.20;99.90
26342;DHT22;14054;50.108;8.640;2023-07-29T12:39:24;31.40;98.80
26342;DHT22;14054;50.108;8.640;2023-07-29T12:41:52;31.80;95.70
26342;DHT22;14054;50.108;8.640;2023-07-29T12:44:18;31.40;95.00
26342;DHT22;14054;50.108;8.640;2023-07-29T12:46:44;30.10;97.30
26342;DHT22;14054;50.108;8.640;2023-07-29T12:49:10;30.40;96.30
26342;DHT22;14054;50.108;8.640;2023-07-29T12:51:35;31.20;95.30
26342;DHT22;14054;50.108;8.640;2023-07-29T12:54:02;31.90;93.70
26342;DHT22;14054;50.108;8.640;2023-07-29T12:56:28;31.90;93.90
26342;DHT22;14054;50.108;8.640;2023-07-29T12:58:55;31.50;92.30
26342;DHT22;14054;50.108;8.640;2023-07-29T13:01:20;31.10;91.30
26342;DHT22;14054;50.108;8.640;2023-07-29T13:03:47;30.50;92.50
26342;DHT22;14054;50.108;8.640;2023-07-29T13:06:12;29.70;93.30
26342;DHT22;14054;50.108;8.640;2023-07-29T13:08:38;29.00;95.20
26342;DHT22;14054;50.108;8.640;2023-07-29T13:11:03;28.70;96.10
26342;DHT22;14054;50.108;8.640;2023-07-29T13:13:29;28.40;97.70
26342;DHT22;14054;50.108;8.640;2023-07-29T13:15:55;27.90;99.00
26342;DHT22;14054;50.108;8.640;2023-07-29T13:18:21;27.50;99.90
26342;DHT22;14054;50.108;8.640;2023-07-29T13:20:47;27.20;99.90
26342;DHT22;14054;50.108;8.640;2023-07-29T13:23:13;27.00;99.90
26342;DHT22;14054;50.108;8.640;2023-07-29T13:25:38;26.90;99.90
26342;DHT22;14054;50.108;8.640;2023-07-29T13:28:04;27.90;99.90
26342;DHT22;14054;50.108;8.640;2023-07-29T13:30:30;28.80;99.70
26342;DHT22;14054;50.108;8.640;2023-07-29T13:32:55;28.60;96.80
26342;DHT22;14054;50.108;8.640;2023-07-29T13:35:21;28.70;95.00
26342;DHT22;14054;50.108;8.640;2023-07-29T13:37:46;29.40;92.40
26342;DHT22;14054;50.108;8.640;2023-07-29T13:40:12;28.80;93.70
26342;DHT22;14054;50.108;8.640;2023-07-29T13:42:37;29.10;95.10
26342;DHT22;14054;50.108;8.640;2023-07-29T13:45:04;28.70;96.30
26342;DHT22;14054;50.108;8.640;2023-07-29T13:47:29;28.60;97.80
26342;DHT22;14054;50.108;8.640;2023-07-29T13:49:55;29.80;97.20
26342;DHT22;14054;50.108;8.640;2023-07-29T13:52:20;29.40;96.10
26342;DHT22;14054;50.108;8.640;2023-07-29T13:54:46;28.90;97.10
26342;DHT22;14054;50.108;8.640;2023-07-29T13:57:11;28.60;98.20
26342;DHT22;14054;50.108;8.640;2023-07-29T13:59:37;28.70;97.70
26342;DHT22;14054;50.108;8.640;2023-07-29T14:02:06;28.90;97.60
26342;DHT22;14054;50.108;8.640;2023-07-29T14:04:34;28.60;96.90
26342;DHT22;14054;50.108;8.640;2023-07-29T14:07:00;30.10;94.70
26342;DHT22;14054;50.108;8.640;2023-07-29T14:09:26;31.60;90.50
26342;DHT22;14054;50.108;8.640;2023-07-29T14:11:52;32.40;85.10
26342;DHT22;14054;50.108;8.640;2023-07-29T14:14:17;33.10;81.00
26342;DHT22;14054;50.108;8.640;2023-07-29T14:16:43;33.90;78.10
26342;DHT22;14054;50.108;8.640;2023-07-29T14:19:08;34.80;73.60
26342;DHT22;14054;50.108;8.640;2023-07-29T14:21:34;35.70;68.30
26342;DHT22;14054;50.108;8.640;2023-07-29T14:23:59;35.50;64.20
26342;DHT22;14054;50.108;8.640;2023-07-29T14:26:25;36.00;61.80
26342;DHT22;14054;50.108;8.640;2023-07-29T14:28:51;36.20;59.90
26342;DHT22;14054;50.108;8.640;2023-07-29T14:31:17;36.60;58.10
26342;DHT22;14054;50.108;8.640;2023-07-29T14:33:43;36.30;56.90
26342;DHT22;14054;50.108;8.640;2023-07-29T14:36:09;36.80;55.80
26342;DHT22;14054;50.108;8.640;2023-07-29T14:38:35;37.00;54.60
26342;DHT22;14054;50.108;8.640;2023-07-29T14:41:01;37.20;54.00
26342;DHT22;14054;50.108;8.640;2023-07-29T14:43:26;36.80;52.50
26342;DHT22;14054;50.108;8.640;2023-07-29T14:45:52;37.30;51.30
26342;DHT22;14054;50.108;8.640;2023-07-29T14:48:18;36.00;51.50
26342;DHT22;14054;50.108;8.640;2023-07-29T14:50:43;34.30;54.90
26342;DHT22;14054;50.108;8.640;2023-07-29T14:53:10;32.80;57.90
26342;DHT22;14054;50.108;8.640;2023-07-29T14:55:37;31.70;60.30
26342;DHT22;14054;50.108;8.640;2023-07-29T14:58:02;31.00;63.10
26342;DHT22;14054;50.108;8.640;2023-07-29T15:00:28;30.40;64.20
26342;DHT22;14054;50.108;8.640;2023-07-29T15:02:53;30.10;66.50
26342;DHT22;14054;50.108;8.640;2023-07-29T15:05:19;29.80;67.80
26342;DHT22;14054;50.108;8.640;2023-07-29T15:07:44;29.60;69.30
26342;DHT22;14054;50.108;8.640;2023-07-29T15:10:10;29.40;71.40
26342;DHT22;14054;50.108;8.640;2023-07-29T15:12:35;29.00;71.40
26342;DHT22;14054;50.108;8.640;2023-07-29T15:15:01;28.80;73.70
26342;DHT22;14054;50.108;8.640;2023-07-29T15:17:27;28.40;74.30
26342;DHT22;14054;50.108;8.640;2023-07-29T15:19:52;28.20;77.20
26342;DHT22;14054;50.108;8.640;2023-07-29T15:22:18;28.20;78.10
26342;DHT22;14054;50.108;8.640;2023-07-29T15:24:43;28.00;78.20
26342;DHT22;14054;50.108;8.640;2023-07-29T15:27:10;28.00;79.70
26342;DHT22;14054;50.108;8.640;2023-07-29T15:29:36;27.90;79.30
26342;DHT22;14054;50.108;8.640;2023-07-29T15:32:01;27.70;80.40
26342;DHT22;14054;50.108;8.640;2023-07-29T15:34:27;27.80;80.30
26342;DHT22;14054;50.108;8.640;2023-07-29T15:36:57;27.50;79.40
26342;DHT22;14054;50.108;8.640;2023-07-29T15:39:22;27.30;80.60